Terminal Aerodrome Forecast
Issued by NWS

Home | Current Version | Previous Version | Text Only | Print | Product List | Glossary On
Versions: 1 2 3 4 5 6 7 8 9 10 11 12 13 14 15 16 17 18 19 20 21 22 23 24 25 26
000
FTUS44 KEWX 040821 AAA
TAFSSF
TAF AMD
KSSF 040821Z 0408/0506 35006KT P6SM -SHRA SCT012 BKN020 OVC027
     FM041000 01010KT 5SM -SHRA OVC007
     FM041800 03012KT 5SM BR OVC008 PROB30 0418/0424 -SHRA
     FM050000 03012KT 5SM -SHRA OVC008=

USA.gov is the U.S. government's official web portal to all federal, state and local government web resources and services.